TimeEDT,TemperatureF,Dew PointF,Humidity,Sea Level PressureIn,VisibilityMPH,Wind Direction,Wind SpeedMPH,Gust SpeedMPH,PrecipitationIn,Events,Conditions,WindDirDegrees,DateUTC
12:53 AM,66.0,51.1,59,30.16,10.0,SSE,6.9,-,N/A,,Overcast,160,2013-05-02 04:53:00
1:53 AM,64.9,52.0,63,30.15,10.0,SE,4.6,-,N/A,,Overcast,130,2013-05-02 05:53:00
2:53 AM,64.0,51.1,63,30.13,10.0,Calm,Calm,-,N/A,,Overcast,0,2013-05-02 06:53:00
3:53 AM,63.0,52.0,67,30.13,10.0,Calm,Calm,-,N/A,,Clear,0,2013-05-02 07:53:00
4:53 AM,59.0,53.1,81,30.14,10.0,Calm,Calm,-,N/A,,Clear,0,2013-05-02 08:53:00
5:53 AM,57.0,53.1,87,30.14,10.0,Calm,Calm,-,N/A,,Mostly Cloudy,0,2013-05-02 09:53:00
6:53 AM,55.9,53.1,90,30.14,10.0,Calm,Calm,-,N/A,,Scattered Clouds,0,2013-05-02 10:53:00
7:53 AM,55.0,52.0,89,30.14,10.0,Calm,Calm,-,N/A,,Scattered Clouds,0,2013-05-02 11:53:00
8:53 AM,60.1,54.0,80,30.16,10.0,Calm,Calm,-,N/A,,Mostly Cloudy,0,2013-05-02 12:53:00
9:53 AM,62.1,55.0,78,30.18,10.0,Calm,Calm,-,N/A,,Overcast,0,2013-05-02 13:53:00
10:53 AM,68.0,54.0,61,30.17,10.0,North,4.6,-,N/A,,Mostly Cloudy,10,2013-05-02 14:53:00
11:53 AM,70.0,55.9,61,30.18,10.0,SE,9.2,-,N/A,,Mostly Cloudy,140,2013-05-02 15:53:00
12:53 PM,72.0,57.0,59,30.16,10.0,South,8.1,17.3,N/A,,Mostly Cloudy,170,2013-05-02 16:53:00
1:53 PM,73.0,57.0,57,30.15,10.0,ESE,11.5,16.1,N/A,,Mostly Cloudy,120,2013-05-02 17:53:00
2:53 PM,73.9,57.0,55,30.14,10.0,South,8.1,-,N/A,,Mostly Cloudy,170,2013-05-02 18:53:00
3:53 PM,77.0,55.0,47,30.12,10.0,South,11.5,-,N/A,,Mostly Cloudy,170,2013-05-02 19:53:00
4:53 PM,75.0,55.0,50,30.11,10.0,South,9.2,16.1,N/A,,Mostly Cloudy,170,2013-05-02 20:53:00
5:53 PM,73.9,55.0,52,30.11,10.0,SE,9.2,-,N/A,,Mostly Cloudy,130,2013-05-02 21:53:00
6:53 PM,72.0,55.9,57,30.09,10.0,SE,5.8,-,N/A,,Mostly Cloudy,130,2013-05-02 22:53:00
7:53 PM,70.0,55.9,61,30.10,10.0,SSE,4.6,-,N/A,,Mostly Cloudy,160,2013-05-02 23:53:00
8:53 PM,68.0,55.0,63,30.11,10.0,SSE,4.6,-,N/A,,Mostly Cloudy,150,2013-05-03 00:53:00
9:53 PM,66.9,54.0,63,30.12,10.0,SSE,3.5,-,N/A,,Mostly Cloudy,150,2013-05-03 01:53:00
10:53 PM,66.9,54.0,63,30.12,10.0,SSE,3.5,-,N/A,,Mostly Cloudy,160,2013-05-03 02:53:00
11:53 PM,64.9,55.0,70,30.12,10.0,SSE,3.5,-,N/A,,Mostly Cloudy,150,2013-05-03 03:53:00